Weather reports worldwide

Advertisment
Nieuw Beerta aws, Netherlands (6286): temperature & dewpoint: 07.12.2019 06:00:00 - 13.12.2019 06:00:00 (CET)Nieuw Beerta aws, Netherlands (6286): temperature 5cm & temperature -5cm: 07.12.2019 06:00:00 - 13.12.2019 06:00:00 (CET)Nieuw Beerta aws, Netherlands (6286): temperature -20cm & temperature -100cm: 07.12.2019 06:00:00 - 13.12.2019 06:00:00 (CET)Nieuw Beerta aws, Netherlands (6286): wind speed & gusts: 07.12.2019 06:00:00 - 13.12.2019 06:00:00 (CET)Nieuw Beerta aws, Netherlands (6286): wind direction: 07.12.2019 06:00:00 - 13.12.2019 06:00:00 (CET)Nieuw Beerta aws, Netherlands (6286): precipitation: 07.12.2019 06:00:00 - 13.12.2019 06:00:00 (CET)
Date & Time tt [°C] td [°C] tt 5cm [°C] tt -5cm [°C] tt -20cm [°C] tt -100cm [°C] ff [km/h] ff [kn] fx [km/h] fx [kn] dd rr [mm]
13.12.2019 06:00:00 2,8 -0,6 2,5 3,9 5,0 8,7 29 16 40 21 SE 0,0
13.12.2019 05:00:00 2,9 -0,6 2,6 3,9 5,1 8,7 29 16 40 21 SE 0,0
13.12.2019 04:00:00 2,3 -0,9 1,7 3,9 5,2 8,7 25 14 40 21 SE 0,0
13.12.2019 03:00:00 2,1 -1,1 1,5 4,0 5,2 8,7 29 16 43 23 SE 0,0
13.12.2019 02:00:00 2,3 -0,8 1,7 4,1 5,3 8,7 29 16 43 23 SE 0,0
13.12.2019 01:00:00 2,7 -0,4 2,3 4,2 5,3 8,7 29 16 43 23 SE 0,0
13.12.2019 00:00:00 2,7 -0,5 2,2 4,3 5,4 8,7 32 18 47 25 SE 0,0
12.12.2019 23:00:00 3,1 -0,2 2,6 4,3 5,4 8,7 32 18 47 25 SE 0,0
12.12.2019 22:00:00 3,2 0,0 2,9 4,3 5,5 8,7 29 16 47 25 SSE 0,0
12.12.2019 21:00:00 2,8 -0,1 2,0 4,4 5,6 8,7 29 16 40 21 SSE 0,0
12.12.2019 20:00:00 2,7 0,1 2,1 4,6 5,6 8,7 25 14 32 18 SSE 0,0
12.12.2019 19:00:00 2,7 0,4 1,9 4,8 5,7 8,7 22 12 29 16 SSE 0,0
12.12.2019 18:00:00 2,8 0,4 1,9 5,0 5,7 8,7 22 12 25 14 SSE 0,0
12.12.2019 17:00:00 3,5 0,9 2,5 5,3 5,7 8,7 22 12 32 18 S 0,0
12.12.2019 16:00:00 4,2 1,6 3,7 5,5 5,7 8,7 25 14 36 19 S 0,0
12.12.2019 15:00:00 4,8 2,6 4,5 5,5 5,7 8,7 22 12 36 19 S 0,0
12.12.2019 14:00:00 5,1 2,9 5,0 5,5 5,7 8,7 25 14 36 19 S 0,0
12.12.2019 13:00:00 5,2 3,3 5,2 5,4 5,7 8,7 25 14 36 19 SSW 0,0
12.12.2019 12:00:00 5,2 3,8 5,3 5,4 5,7 8,7 22 12 32 18 SSW 0,0
12.12.2019 11:00:00 4,8 3,6 4,7 5,3 5,7 8,7 25 14 36 19 SSW 0,0
12.12.2019 10:00:00 4,8 3,8 4,6 5,3 5,7 8,7 25 14 32 18 SSW 0,0
12.12.2019 09:00:00 4,7 3,6 4,4 5,3 5,7 8,7 22 12 29 16 SSW 0,0
12.12.2019 08:00:00 4,9 3,7 4,7 5,3 5,7 8,7 25 14 32 18 SW 0,0
12.12.2019 07:00:00 5,0 3,9 4,6 5,3 5,7 8,7 25 14 32 18 SSW 0,0
12.12.2019 06:00:00 5,0 4,1 4,7 5,3 5,7 8,7 22 12 29 16 SSW 0,0
12.12.2019 05:00:00 4,8 4,0 4,3 5,3 5,7 8,7 22 12 25 14 SSW 0,0
12.12.2019 04:00:00 5,2 4,3 5,0 5,3 5,7 8,7 18 10 25 14 S 0,0
12.12.2019 03:00:00 5,0 4,3 4,8 5,3 5,7 8,7 14 8 22 12 S 0,0
12.12.2019 02:00:00 4,8 4,1 4,6 5,3 5,7 8,7 14 8 22 12 S 0,0
12.12.2019 01:00:00 4,8 4,0 4,6 5,3 5,8 8,7 14 8 22 12 SSW 0,0
12.12.2019 00:00:00 4,6 4,0 4,5 5,2 5,8 8,7 18 10 29 16 S 0,0
11.12.2019 23:00:00 4,7 4,2 4,5 5,2 5,8 8,7 18 10 25 14 SSW 0,0
11.12.2019 22:00:00 4,0 3,6 3,5 5,3 5,8 8,7 14 8 22 12 SSW 0,0
11.12.2019 21:00:00 4,3 3,9 3,7 5,4 5,9 8,7 14 8 22 12 S 0,0
11.12.2019 20:00:00 4,4 4,0 4,0 5,5 5,9 8,7 14 8 22 12 S 0,0
11.12.2019 19:00:00 4,6 4,3 4,0 5,6 5,9 8,7 14 8 18 10 S 0,0
11.12.2019 18:00:00 5,0 4,6 4,5 5,8 5,9 8,7 11 6 18 10 SSW 0,0
11.12.2019 17:00:00 5,5 5,1 5,0 5,9 5,9 8,7 11 6 18 10 S 0,0
11.12.2019 16:00:00 6,1 5,5 5,7 6,1 5,8 8,7 14 8 18 10 S 0,0
11.12.2019 15:00:00 6,7 5,9 6,5 6,1 5,8 8,7 11 6 18 10 S 0,0
11.12.2019 14:00:00 6,9 6,3 6,9 6,0 5,7 8,7 14 8 22 12 SSW 0,0
11.12.2019 13:00:00 6,9 6,2 7,1 5,8 5,7 8,7 14 8 25 14 SSW 0,0
11.12.2019 12:00:00 6,7 6,1 6,8 5,6 5,6 8,7 18 10 25 14 SSW 0,0
11.12.2019 11:00:00 6,2 5,7 6,3 5,5 5,6 8,7 18 10 25 14 SSW 0,0
11.12.2019 10:00:00 5,8 5,3 5,8 5,3 5,6 8,8 22 12 29 16 SSW 0,0
11.12.2019 09:00:00 5,8 5,1 5,5 5,3 5,5 8,8 18 10 29 16 SSW 0,0
11.12.2019 08:00:00 5,8 5,1 5,5 5,3 5,5 8,8 22 12 29 16 SSW 0,0
11.12.2019 07:00:00 5,8 5,1 5,6 5,2 5,5 8,8 22 12 32 18 SSW 0,1
11.12.2019 06:00:00 5,6 4,8 5,4 5,1 5,5 8,8 22 12 40 21 SSW 0,6
11.12.2019 05:00:00 5,7 4,5 5,4 5,0 5,5 8,8 29 16 50 27 SSW 0,7
11.12.2019 04:00:00 5,8 3,6 5,0 5,0 5,5 8,8 32 18 58 31 SSW 0,0
11.12.2019 03:00:00 5,7 2,4 5,4 4,9 5,5 8,8 43 23 65 35 SSW 0,0
11.12.2019 02:00:00 5,8 1,6 5,5 4,9 5,5 8,8 47 25 68 37 SSW 0,0
11.12.2019 01:00:00 5,9 1,1 5,4 4,8 5,5 8,8 47 25 68 37 SSW 0,0
11.12.2019 00:00:00 5,8 0,9 5,4 4,8 5,5 8,8 47 25 72 39 SSW 0,0
10.12.2019 23:00:00 5,8 0,4 5,3 4,8 5,5 8,8 43 23 61 33 S 0,0
10.12.2019 22:00:00 5,4 0,5 5,0 4,8 5,5 8,7 40 21 61 33 S 0,0
10.12.2019 21:00:00 5,4 0,2 4,6 4,8 5,5 8,8 43 23 65 35 S 0,0
10.12.2019 20:00:00 4,9 0,9 4,4 4,8 5,5 8,7 32 18 54 29 S 0,0
10.12.2019 19:00:00 5,0 0,7 4,4 4,8 5,6 8,8 36 19 50 27 S 0,0
10.12.2019 18:00:00 4,5 1,0 4,0 4,8 5,6 8,7 32 18 54 29 S 0,0
10.12.2019 17:00:00 4,4 0,8 3,8 4,9 5,6 8,7 32 18 47 25 S 0,0
10.12.2019 16:00:00 4,8 1,0 4,3 5,0 5,6 8,7 29 16 47 25 S 0,0
10.12.2019 15:00:00 5,5 1,8 5,1 5,1 5,5 8,7 29 16 43 23 S 0,0
10.12.2019 14:00:00 6,0 2,4 5,6 5,0 5,5 8,7 32 18 43 23 S 0,0
10.12.2019 13:00:00 5,7 2,7 5,7 4,8 5,5 8,7 25 14 32 18 SSW 0,0
10.12.2019 12:00:00 5,2 2,4 5,1 4,5 5,5 8,7 22 12 32 18 SSW 0,0
10.12.2019 11:00:00 3,8 1,7 2,9 4,4 5,6 8,7 18 10 25 14 SSW 0,0
10.12.2019 10:00:00 2,5 0,3 1,9 4,4 5,6 8,7 14 8 22 12 SSW 0,0
10.12.2019 09:00:00 1,7 -0,2 1,1 4,5 5,7 8,7 14 8 18 10 SSW 0,0
10.12.2019 08:00:00 3,4 1,2 2,7 4,5 5,8 8,7 14 8 18 10 SW 0,0
10.12.2019 07:00:00 3,2 0,9 2,3 4,6 5,8 8,7 14 8 22 12 WSW 0,0
10.12.2019 06:00:00 2,2 0,4 1,1 4,6 5,9 8,7 14 8 18 10 W 0,0
10.12.2019 05:00:00 2,7 0,7 1,2 4,8 6,0 8,7 14 8 22 12 W 0,0
10.12.2019 04:00:00 3,1 1,0 1,9 4,9 6,0 8,7 18 10 29 16 W 0,0
10.12.2019 03:00:00 4,2 1,5 2,8 5,0 6,1 8,7 25 14 36 19 WNW 0,0
10.12.2019 02:00:00 3,2 0,7 2,4 5,1 6,2 8,7 22 12 29 16 WNW 0,0
10.12.2019 01:00:00 3,5 0,8 2,3 5,2 6,2 8,7 18 10 25 14 WNW 0,0
10.12.2019 00:00:00 4,2 1,4 3,2 5,3 6,3 8,7 22 12 29 16 W 0,0
09.12.2019 23:00:00 3,9 1,4 2,9 5,4 6,4 8,7 18 10 40 21 W 0,3
09.12.2019 22:00:00 5,2 1,8 4,2 5,6 6,4 8,7 32 18 47 25 NNW 0,0
09.12.2019 21:00:00 4,8 0,7 4,1 5,7 6,5 8,7 25 14 58 31 WNW 0,0
09.12.2019 20:00:00 5,8 1,3 4,7 5,9 6,5 8,7 32 18 68 37 NW 0,2
09.12.2019 19:00:00 5,9 1,6 4,9 6,1 6,5 8,7 29 16 47 25 NW 0,0
09.12.2019 18:00:00 6,3 2,4 5,4 6,3 6,6 8,7 36 19 54 29 NW 0,0
09.12.2019 17:00:00 6,7 3,1 5,9 6,5 6,5 8,7 32 18 50 27 NW 0,0
09.12.2019 16:00:00 6,8 4,5 6,1 6,5 6,5 8,7 25 14 47 25 NNW 1,4
09.12.2019 15:00:00 7,1 5,5 6,9 6,5 6,5 8,7 14 8 29 16 NW 0,6
09.12.2019 14:00:00 7,5 5,9 7,1 6,3 6,5 8,7 18 10 32 18 W 0,0
09.12.2019 13:00:00 7,3 5,4 7,7 6,1 6,5 8,7 22 12 29 16 W 0,0
09.12.2019 12:00:00 6,7 4,8 6,8 6,0 6,5 8,7 22 12 29 16 WSW 0,0
09.12.2019 11:00:00 5,8 4,1 5,5 6,0 6,5 8,7 14 8 25 14 SSW 0,0
09.12.2019 10:00:00 5,8 4,0 5,2 6,0 6,5 8,7 18 10 25 14 SW 0,0
09.12.2019 09:00:00 5,6 4,0 5,0 6,0 6,6 8,7 14 8 25 14 SSW 0,0
09.12.2019 08:00:00 5,9 4,0 5,5 6,0 6,6 8,7 18 10 32 18 SSW 0,0
09.12.2019 07:00:00 5,8 3,8 5,3 6,1 6,6 8,7 25 14 43 23 SSW 0,0
09.12.2019 06:00:00 6,3 4,1 5,7 6,1 6,7 8,7 29 16 43 23 SSW 0,0
09.12.2019 05:00:00 5,9 3,8 5,1 6,2 6,7 8,7 25 14 40 21 SSW 0,0
09.12.2019 04:00:00 6,1 4,0 5,6 6,3 6,8 8,7 29 16 40 21 SSW 0,0
09.12.2019 03:00:00 5,9 4,2 5,4 6,3 6,8 8,7 25 14 43 23 SSW 0,3
09.12.2019 02:00:00 6,1 3,7 5,4 6,4 6,9 8,7 32 18 54 29 SW 0,0
09.12.2019 01:00:00 6,2 4,3 5,2 6,5 6,9 8,7 29 16 36 19 SW 0,0
09.12.2019 00:00:00 6,3 4,4 5,6 6,7 7,0 8,7 29 16 43 23 SW 0,2
08.12.2019 23:00:00 6,8 3,8 6,4 6,7 7,0 8,7 43 23 61 33 SW 0,1
08.12.2019 22:00:00 7,3 4,0 6,4 6,8 7,0 8,7 32 18 50 27 SW 0,0
08.12.2019 21:00:00 7,5 4,9 6,8 6,9 7,1 8,7 29 16 43 23 SW 0,0
08.12.2019 20:00:00 7,8 5,0 6,7 7,1 7,1 8,7 32 18 43 23 SW 0,0
08.12.2019 19:00:00 7,9 4,9 7,1 7,2 7,1 8,7 25 14 47 25 SW 0,0
08.12.2019 18:00:00 8,5 5,4 7,9 7,3 7,1 8,8 32 18 47 25 SW 0,0
08.12.2019 17:00:00 8,5 5,4 7,6 7,5 7,1 8,8 32 18 54 29 SW 0,0
08.12.2019 16:00:00 9,1 6,3 8,3 7,6 7,0 8,8 36 19 47 25 WSW 0,0
08.12.2019 15:00:00 9,7 6,2 9,2 7,6 7,0 8,8 36 19 58 31 WSW 0,0
08.12.2019 14:00:00 10,1 7,2 9,6 7,6 6,9 8,8 36 19 54 29 WSW 0,1
08.12.2019 13:00:00 9,9 7,6 9,3 7,5 6,9 8,8 40 21 58 31 WSW 0,4
08.12.2019 12:00:00 10,1 8,5 9,7 7,3 6,8 8,8 47 25 61 33 SW 0,0
08.12.2019 11:00:00 9,3 8,5 8,9 7,2 6,8 8,8 43 23 61 33 SW 0,5
08.12.2019 10:00:00 8,7 8,0 8,5 7,1 6,8 8,8 40 21 61 33 SSW 0,4
08.12.2019 09:00:00 8,5 7,5 8,3 7,0 6,8 8,8 43 23 65 35 SSW 0,6
08.12.2019 08:00:00 8,2 6,9 7,8 7,0 6,8 8,8 36 19 61 33 SSW 2,2
08.12.2019 07:00:00 8,6 5,6 8,2 6,9 6,7 8,8 43 23 61 33 SSW 0,0
08.12.2019 06:00:00 8,8 5,5 8,3 7,0 6,7 8,8 43 23 65 35 SSW 0,0
08.12.2019 05:00:00 8,9 5,7 8,4 6,9 6,7 8,8 43 23 65 35 SSW 0,0
08.12.2019 04:00:00 8,8 6,2 8,4 6,9 6,7 8,8 43 23 61 33 SSW 0,0
08.12.2019 03:00:00 8,7 6,3 8,2 6,9 6,7 8,8 40 21 50 27 SSW 0,0
08.12.2019 02:00:00 8,3 5,9 7,9 6,9 6,7 8,8 40 21 50 27 SSW 0,0
08.12.2019 01:00:00 7,9 5,3 7,5 6,9 6,7 8,8 29 16 43 23 SSW 0,0
08.12.2019 00:00:00 7,8 5,4 7,3 7,0 6,7 8,8 25 14 36 19 SSW 0,0
07.12.2019 23:00:00 8,1 5,9 7,8 7,0 6,7 8,8 22 12 40 21 SSW 0,0
07.12.2019 22:00:00 8,7 6,1 8,1 7,0 6,7 8,8 25 14 36 19 SW 0,0
07.12.2019 21:00:00 8,6 7,0 8,3 7,1 6,7 8,8 29 16 36 19 SW 0,0
07.12.2019 20:00:00 8,5 7,2 8,2 7,1 6,6 8,8 25 14 40 21 SW 0,0
07.12.2019 19:00:00 8,7 7,3 8,3 7,1 6,6 8,8 25 14 32 18 SW 0,0
07.12.2019 18:00:00 8,7 7,3 8,3 7,1 6,6 8,8 14 8 36 19 WSW 0,0
07.12.2019 17:00:00 8,8 7,1 8,3 7,2 6,5 8,8 25 14 36 19 WSW 0,0
07.12.2019 16:00:00 8,9 7,5 8,6 7,2 6,5 8,8 25 14 43 23 WSW 0,0
07.12.2019 15:00:00 9,4 7,5 9,2 7,2 6,4 8,8 29 16 36 19 WSW 0,0
07.12.2019 14:00:00 9,5 7,6 9,4 7,1 6,3 8,8 29 16 36 19 WSW 0,0
07.12.2019 13:00:00 9,5 7,5 9,4 6,9 6,3 8,9 22 12 40 21 WSW 0,0
07.12.2019 12:00:00 9,1 7,3 9,0 6,8 6,2 8,9 32 18 43 23 W 0,0
07.12.2019 11:00:00 9,0 7,4 8,7 6,7 6,2 8,9 29 16 40 21 W 0,0
07.12.2019 10:00:00 8,8 7,6 8,4 6,6 6,1 8,9 29 16 40 21 WSW 0,0
07.12.2019 09:00:00 8,6 7,3 8,1 6,5 6,1 8,9 25 14 40 21 WSW 0,0
07.12.2019 08:00:00 8,5 7,3 8,2 6,5 6,1 8,9 25 14 36 19 WSW 0,0
07.12.2019 07:00:00 8,6 7,3 8,2 6,5 6,0 8,9 25 14 40 21 WSW 0,0
07.12.2019 06:00:00 8,5 7,6 8,2 6,4 6,0 8,9 25 14 40 21 WSW 0,0

tt = temperature
td = dewpoint
tt 5cm = temperature 5cm
tt -5cm = temperature -5cm
tt -20cm = temperature -20cm
tt -100cm = temperature -100cm
ff = wind speed
fx = gusts
dd = wind direction
rr = precipitation

Next stations